• Join FlightAware (Why Join?)
  • Login
  • US Flag 
04:44AM EDT


 

Airport Tracker/Info


-or-


 

Live Flight TrackerFlight Track Log ✈ JZA8293 ✈ 03-May-2013 ✈ CYWG - CYXE

Flight Track Log - Related Links

Times and Time Zones

All times are in EDT time to prevent confusion due to time zone crossing. See the JZA8293 flight status page for this flight to view local times or setup timezone preferences in your user account.

Time Position Orientation Groundspeed Altitude Reporting Facility
EDT Latitude Longitude Course Direction KTS MPH feet Rate Location/Type
08:09AM 49.8833 -97.2333 287° West 10 12 700  Level Winnipeg Center
08:10AM 49.8833 -97.2333 287° West 80 92 700 1,200 Level Winnipeg Center
08:11AM 49.9167 -97.2833 316° Northwest 180 207 3,100 2,640 Climbing Winnipeg Center
08:12AM 49.9500 -97.3500 308° West 240 276 6,000 2,880 Climbing Winnipeg Center
08:13AM 49.9667 -97.4667 283° West 270 311 8,900 2,820 Climbing Winnipeg Center
08:14AM 50.0000 -97.5833 294° West 280 322 11,700 2,700 Climbing Winnipeg Center
08:15AM 50.0167 -97.7000 283° West 300 345 14,300 2,700 Climbing Winnipeg Center
08:16AM 50.0783 -98.0411 287° West  Level FlightAware Approximate
08:16AM 50.0500 -97.8500 289° West 310 357 17,100  Level Winnipeg Center
08:17AM 50.0667 -97.9500 285° West 320 368 18,700 1,800 Climbing Winnipeg Center
08:18AM 50.0833 -98.1167 279° West 330 380 20,800 1,920 Climbing Winnipeg Center
08:19AM 50.1167 -98.2500 291° West 340 391 22,600 1,800 Climbing Winnipeg Center
08:20AM 50.1333 -98.4000 280° West 350 403 24,400 1,680 Climbing Winnipeg Center
08:21AM 50.1667 -98.5333 291° West 350 403 26,000 1,380 Climbing Winnipeg Center
08:22AM 50.2000 -98.6833 289° West 360 414 27,200 1,200 Climbing Winnipeg Center
08:23AM 50.2333 -98.8500 287° West 370 426 28,400 1,080 Climbing Winnipeg Center
08:24AM 50.2667 -99.0000 289° West 370 426 29,400 1,020 Climbing Winnipeg Center
08:25AM 50.3000 -99.1667 287° West 380 437 30,500 900 Climbing Winnipeg Center
08:26AM 50.3167 -99.3167 280° West 380 437 31,200 660 Climbing Winnipeg Center
08:27AM 50.3500 -99.4833 287° West 390 449 31,900 660 Climbing Winnipeg Center
08:28AM 50.3833 -99.6500 287° West 390 449 32,600 720 Climbing Winnipeg Center
08:29AM 50.4167 -99.8000 289° West 400 460 33,400 660 Climbing Winnipeg Center
08:30AM 50.4667 -99.9667 295° West 390 449 34,000 300 Climbing Winnipeg Center
08:31AM 50.5000 -100.1167 289° West 400 460 34,000  Level Winnipeg Center
08:32AM 50.5500 -100.2833 295° West 400 460 34,000  Level Winnipeg Center
08:33AM 50.6000 -100.4500 295° West 400 460 34,000  Level Winnipeg Center
08:34AM 50.6500 -100.5833 301° West 400 460 34,000  Level Winnipeg Center
08:35AM 50.6833 -100.7667 286° West 390 449 34,000  Level Winnipeg Center
08:36AM 50.7333 -100.9000 301° West 400 460 34,000  Level Winnipeg Center
08:37AM 50.7833 -101.0667 295° West 400 460 34,000  Level Winnipeg Center
08:38AM 50.8167 -101.2333 288° West 390 449 34,000  Level Winnipeg Center
08:39AM 50.8667 -101.4000 295° West 390 449 34,000  Level Winnipeg Center
08:40AM 50.9167 -101.5333 301° West 390 449 34,000  Level Winnipeg Center
08:41AM 50.9500 -101.7000 288° West 390 449 34,000  Level Winnipeg Center
08:42AM 51.0000 -101.8667 296° West 380 437 34,000  Level Winnipeg Center
08:43AM 51.0333 -102.0333 288° West 380 437 34,000  Level Winnipeg Center
08:44AM 51.0833 -102.1667 301° West 370 426 34,000  Level Winnipeg Center
08:45AM 51.1333 -102.3333 296° West 370 426 34,000  Level Winnipeg Center
08:46AM 51.1500 -102.4667 281° West 360 414 34,000  Level Winnipeg Center
08:47AM 51.2000 -102.6000 301° West 360 414 34,000  Level Winnipeg Center
08:48AM 51.2500 -102.7500 298° West 360 414 34,000  Level Winnipeg Center
08:49AM 51.2667 -102.8833 281° West 350 403 34,000  Level Winnipeg Center
08:50AM 51.3167 -103.0500 296° West 350 403 34,000  Level Winnipeg Center
08:51AM 51.3500 -103.1833 292° West 350 403 34,000  Level Winnipeg Center
08:52AM 51.3833 -103.3333 290° West 350 403 34,000  Level Winnipeg Center
08:53AM 51.4167 -103.4667 292° West 350 403 34,000  Level Winnipeg Center
08:54AM 51.4667 -103.6333 296° West 350 403 34,000  Level Winnipeg Center
08:55AM 51.4833 -103.7667 281° West 360 414 34,000  Level Winnipeg Center
08:56AM 51.5333 -103.9167 298° West 350 403 34,000  Level Winnipeg Center
08:57AM 51.5667 -104.0500 292° West 360 414 34,000  Level Winnipeg Center
08:58AM 51.6000 -104.2167 288° West 360 414 34,000  Level Winnipeg Center
08:59AM 51.6333 -104.3667 290° West 350 403 34,000  Level Winnipeg Center
09:00AM 51.6833 -104.5000 301° West 350 403 34,000 -900 Level Winnipeg Center
09:01AM 51.7167 -104.6833 286° West 350 403 32,300 -1,860 Descending Winnipeg Center
09:02AM 51.7500 -104.8167 292° West 370 426 30,300 -2,040 Descending Winnipeg Center
09:03AM 51.7833 -104.9833 288° West 380 437 28,300 -1,980 Descending Winnipeg Center
09:04AM 51.8167 -105.1333 290° West 360 414 26,400 -2,100 Descending Winnipeg Center
09:05AM 51.8667 -105.2667 301° West 350 403 24,100 -2,640 Descending Winnipeg Center
09:06AM 51.8833 -105.4167 280° West 350 403 21,200 -3,000 Descending Winnipeg Center
09:07AM 51.9167 -105.5833 288° West 350 403 18,100 -3,000 Descending Winnipeg Center
09:08AM 51.9667 -105.7333 298° West 340 391 15,300 -3,060 Descending Winnipeg Center
09:09AM 51.9833 -105.8500 283° West 340 391 12,000 -2,520 Descending Winnipeg Center
09:10AM 52.0333 -105.9833 301° West 320 368 10,300 -1,980 Descending Winnipeg Center
09:11AM 52.0500 -106.1000 283° West 280 322 8,100 -2,100 Descending Winnipeg Center
09:12AM 52.0833 -106.2167 295° West 270 311 6,100 -1,560 Descending Winnipeg Center
09:13AM 52.1000 -106.3333 283° West 260 299 5,000 -1,200 Descending Winnipeg Center
09:14AM 52.1333 -106.4500 295° West 260 299 3,700 -1,320 Descending Winnipeg Center